Time;durP1;ratioP1;P1;durP2;ratioP2;P2;SDS_P1;SDS_P2;PMS_P1;PMS_P2;Temp;Humidity;BMP_temperature;BMP_pressure;BME280_temperature;BME280_humidity;BME280_pressure;Samples;Min_cycle;Max_cycle;Signal;HPM_P1;HPM_P2
2024/03/09 00:00:19;;;;;;;119.30;75.70;;;;;;;2.03;100.00;100248.98;181839;1237;46111;-82
2024/03/09 00:04:43;;;;;;;104.20;70.00;;;;;;;2.06;100.00;100256.37;182159;1239;46402;-82
2024/03/09 00:08:47;;;;;;;111.30;68.00;;;;;;;2.04;100.00;100247.71;182062;1237;46008;-83
2024/03/09 00:12:49;;;;;;;111.20;64.40;;;;;;;2.03;100.00;100242.73;182536;1238;57663;-83
2024/03/09 00:16:50;;;;;;;119.20;70.20;;;;;;;2.01;100.00;100237.73;182120;1238;46080;-83
2024/03/09 00:20:53;;;;;;;121.10;73.30;;;;;;;1.98;100.00;100235.75;182360;1238;45631;-83
2024/03/09 00:24:55;;;;;;;118.90;73.70;;;;;;;1.98;100.00;100225.79;181980;1238;46118;-83
2024/03/09 00:28:57;;;;;;;115.30;69.10;;;;;;;1.94;100.00;100224.04;181867;1236;46166;-83
2024/03/09 00:33:00;;;;;;;109.50;70.90;;;;;;;1.91;100.00;100225.92;182071;1240;58603;-81
2024/03/09 00:37:02;;;;;;;116.90;69.00;;;;;;;1.88;100.00;100225.23;182283;1236;46086;-83
2024/03/09 00:41:04;;;;;;;108.20;72.50;;;;;;;1.85;100.00;100221.66;182282;1236;46098;-82
2024/03/09 00:45:07;;;;;;;108.30;67.70;;;;;;;1.87;100.00;100213.37;181172;1240;46087;-81
2024/03/09 00:49:09;;;;;;;107.70;65.90;;;;;;;1.88;100.00;100204.94;181476;1238;46151;-81
2024/03/09 00:53:11;;;;;;;120.20;69.40;;;;;;;1.88;100.00;100198.61;181636;1240;58135;-81
2024/03/09 00:57:13;;;;;;;111.10;65.30;;;;;;;1.86;100.00;100196.09;181754;1237;45945;-81
2024/03/09 01:01:15;;;;;;;113.70;65.80;;;;;;;1.85;100.00;100193.33;181171;1237;46106;-81
2024/03/09 01:05:26;;;;;;;111.80;68.40;;;;;;;1.84;100.00;100192.49;182482;1238;46196;-81
2024/03/09 01:09:28;;;;;;;107.00;65.80;;;;;;;1.84;100.00;100188.81;180787;1240;46194;-80
2024/03/09 01:13:30;;;;;;;107.80;66.50;;;;;;;1.83;100.00;100182.40;181492;1237;57763;-81
2024/03/09 01:17:35;;;;;;;109.70;62.20;;;;;;;1.80;100.00;100182.02;181320;1239;46161;-82
2024/03/09 01:21:39;;;;;;;106.10;60.00;;;;;;;1.77;100.00;100170.98;182037;1236;46128;-83
2024/03/09 01:25:40;;;;;;;96.70;62.00;;;;;;;1.75;100.00;100161.27;182028;1240;46255;-83
2024/03/09 01:29:48;;;;;;;114.60;66.30;;;;;;;1.70;100.00;100156.61;181645;1236;46017;-83
2024/03/09 01:33:50;;;;;;;98.00;64.10;;;;;;;1.71;100.00;100151.33;181953;1236;57197;-83
2024/03/09 01:37:51;;;;;;;111.10;65.10;;;;;;;1.74;100.00;100147.16;182394;1240;46518;-82
2024/03/09 01:41:53;;;;;;;109.60;63.90;;;;;;;1.81;100.00;100147.90;181921;1237;46611;-83
2024/03/09 01:45:55;;;;;;;110.50;64.00;;;;;;;1.83;100.00;100146.73;182296;1237;46026;-83
2024/03/09 01:49:58;;;;;;;105.20;64.10;;;;;;;1.86;100.00;100139.61;181810;1237;45971;-83
2024/03/09 01:54:10;;;;;;;101.90;62.20;;;;;;;1.90;100.00;100141.72;182298;1239;58480;-82
2024/03/09 01:58:19;;;;;;;101.30;68.90;;;;;;;1.84;100.00;100136.73;182593;1239;46079;-83
2024/03/09 02:02:23;;;;;;;111.50;69.10;;;;;;;1.78;100.00;100121.98;182080;1238;45239;-82
2024/03/09 02:06:30;;;;;;;100.90;65.50;;;;;;;1.76;100.00;100113.65;181719;1237;46096;-82
2024/03/09 02:10:32;;;;;;;90.00;52.30;;;;;;;1.80;100.00;100119.23;182532;1236;45960;-82
2024/03/09 02:14:36;;;;;;;108.20;64.50;;;;;;;1.74;100.00;100125.13;181930;1241;57985;-83
2024/03/09 02:18:45;;;;;;;101.90;61.40;;;;;;;1.77;100.00;100110.48;181999;1239;46149;-83
2024/03/09 02:22:47;;;;;;;99.80;63.60;;;;;;;1.83;100.00;100104.09;181652;1240;46093;-81
2024/03/09 02:26:50;;;;;;;111.30;66.30;;;;;;;1.88;100.00;100098.95;182335;1239;46067;-83
2024/03/09 02:30:53;;;;;;;105.80;63.30;;;;;;;1.97;100.00;100096.09;181937;1237;45861;-82
2024/03/09 02:34:55;;;;;;;104.60;65.60;;;;;;;1.97;100.00;100093.94;182169;1239;57334;-82
2024/03/09 02:38:59;;;;;;;101.00;64.10;;;;;;;1.98;100.00;100092.00;182238;1237;45824;-83
2024/03/09 02:43:07;;;;;;;111.00;68.10;;;;;;;1.99;100.00;100095.25;182437;1240;45951;-82
2024/03/09 02:47:12;;;;;;;110.60;67.10;;;;;;;1.98;100.00;100100.88;183368;1238;46084;-82
2024/03/09 02:51:16;;;;;;;111.20;67.60;;;;;;;1.99;100.00;100094.21;182342;1237;45868;-82
2024/03/09 02:55:18;;;;;;;125.40;69.70;;;;;;;2.03;100.00;100087.88;182205;1238;58046;-83
2024/03/09 02:59:19;;;;;;;114.90;62.80;;;;;;;2.05;100.00;100080.08;182452;1239;46125;-83
2024/03/09 03:07:42;;;;;;;101.00;64.50;;;;;;;2.06;100.00;100084.78;181956;1238;46010;-83
2024/03/09 03:11:43;;;;;;;102.70;68.10;;;;;;;2.08;100.00;100078.55;182412;1237;46034;-83
2024/03/09 03:15:46;;;;;;;112.40;70.00;;;;;;;2.11;100.00;100074.19;182425;1238;58028;-83
2024/03/09 03:19:48;;;;;;;118.20;62.30;;;;;;;2.12;100.00;100072.75;182396;1236;46570;-82
2024/03/09 03:23:52;;;;;;;102.90;61.90;;;;;;;2.14;100.00;100067.90;181860;1239;45269;-83
2024/03/09 03:27:54;;;;;;;111.30;61.80;;;;;;;2.18;100.00;100064.95;182363;1239;46095;-82
2024/03/09 03:31:56;;;;;;;98.30;61.50;;;;;;;2.18;100.00;100059.34;182416;1236;46097;-82
2024/03/09 03:36:01;;;;;;;99.70;59.20;;;;;;;2.09;100.00;100054.20;182134;1239;59513;-82
2024/03/09 03:40:07;;;;;;;106.70;63.60;;;;;;;2.00;100.00;100056.90;181753;1239;46113;-82
2024/03/09 03:44:09;;;;;;;110.00;61.30;;;;;;;1.88;100.00;100058.52;182037;1239;44074;-82
2024/03/09 03:48:15;;;;;;;103.50;60.50;;;;;;;1.76;100.00;100053.34;182259;1236;46038;-83
2024/03/09 03:52:17;;;;;;;99.60;61.30;;;;;;;1.69;100.00;100049.30;182906;1236;46694;-83
2024/03/09 03:56:24;;;;;;;111.90;58.80;;;;;;;1.65;100.00;100049.50;182202;1237;58697;-83
2024/03/09 04:00:26;;;;;;;120.00;70.00;;;;;;;1.66;100.00;100053.29;182342;1238;46107;-81
2024/03/09 04:04:28;;;;;;;118.90;67.30;;;;;;;1.71;100.00;100056.90;182561;1236;46067;-82
2024/03/09 04:08:30;;;;;;;106.20;68.70;;;;;;;1.74;100.00;100054.48;181955;1238;46138;-82
2024/03/09 04:12:40;;;;;;;100.60;59.20;;;;;;;1.79;100.00;100056.36;182535;1237;46047;-82
2024/03/09 04:16:43;;;;;;;109.00;65.80;;;;;;;1.74;100.00;100063.73;182433;1238;58090;-83
2024/03/09 04:20:44;;;;;;;112.80;66.70;;;;;;;1.75;100.00;100057.08;182221;1239;46105;-82
2024/03/09 04:24:47;;;;;;;110.00;67.00;;;;;;;1.77;100.00;100058.23;181860;1237;46313;-82
2024/03/09 04:28:49;;;;;;;117.50;69.90;;;;;;;1.82;100.00;100051.48;182142;1239;45962;-83
2024/03/09 04:32:51;;;;;;;107.20;66.40;;;;;;;1.86;100.00;100047.08;182159;1236;46098;-81
2024/03/09 04:36:53;;;;;;;118.00;74.10;;;;;;;1.92;100.00;100047.86;182374;1238;57789;-82
2024/03/09 04:40:55;;;;;;;116.80;70.50;;;;;;;1.99;100.00;100040.33;182015;1236;46025;-82
2024/03/09 04:44:57;;;;;;;117.70;69.30;;;;;;;2.04;100.00;100039.77;182007;1236;46800;-83
2024/03/09 04:48:59;;;;;;;119.30;64.80;;;;;;;2.07;100.00;100036.79;181986;1236;45956;-83
2024/03/09 04:53:05;;;;;;;122.60;72.20;;;;;;;2.11;100.00;100040.61;181987;1240;46121;-83
2024/03/09 04:57:08;;;;;;;120.00;69.60;;;;;;;2.15;100.00;100036.41;182270;1240;59574;-83
2024/03/09 05:01:10;;;;;;;105.10;65.60;;;;;;;2.16;100.00;100033.38;182348;1236;46118;-83
2024/03/09 05:05:13;;;;;;;116.10;69.30;;;;;;;2.21;100.00;100028.75;182129;1238;45881;-81
2024/03/09 05:09:16;;;;;;;113.70;65.40;;;;;;;2.20;100.00;100025.61;181808;1236;45984;-83
2024/03/09 05:13:18;;;;;;;111.60;68.70;;;;;;;2.20;100.00;100022.50;182051;1241;46080;-83
2024/03/09 05:17:20;;;;;;;115.50;72.40;;;;;;;2.22;100.00;100021.20;182393;1237;59472;-83
2024/03/09 05:21:23;;;;;;;115.30;70.40;;;;;;;2.19;100.00;100011.52;183458;1236;45964;-83
2024/03/09 05:25:25;;;;;;;126.10;71.20;;;;;;;2.19;100.00;100015.20;182921;1241;46009;-83
2024/03/09 05:29:27;;;;;;;103.80;70.20;;;;;;;2.15;100.00;100013.30;182624;1236;46089;-83
2024/03/09 05:33:29;;;;;;;115.20;68.60;;;;;;;2.10;100.00;100015.80;182584;1237;45894;-82
2024/03/09 05:37:30;;;;;;;104.90;64.00;;;;;;;2.11;100.00;100019.77;182153;1236;57134;-83
2024/03/09 05:41:36;;;;;;;113.70;67.00;;;;;;;2.15;100.00;100019.44;182318;1236;46141;-83
2024/03/09 05:45:38;;;;;;;116.90;71.20;;;;;;;2.20;100.00;100016.05;182552;1239;46012;-83
2024/03/09 05:49:40;;;;;;;125.90;71.70;;;;;;;2.24;100.00;100015.98;181894;1240;45961;-83
2024/03/09 05:53:42;;;;;;;112.90;70.90;;;;;;;2.30;100.00;100014.64;182700;1240;46100;-83
2024/03/09 05:57:48;;;;;;;114.70;68.40;;;;;;;2.34;100.00;100015.11;181782;1236;57963;-83
2024/03/09 06:01:50;;;;;;;117.80;72.60;;;;;;;2.38;100.00;100008.97;182027;1236;46704;-83
2024/03/09 06:05:53;;;;;;;106.50;66.40;;;;;;;2.41;100.00;100008.80;182531;1236;46103;-82
2024/03/09 06:09:55;;;;;;;119.30;72.40;;;;;;;2.44;100.00;100011.98;182062;1238;46080;-83
2024/03/09 06:13:57;;;;;;;110.20;70.40;;;;;;;2.49;100.00;100010.53;181964;1241;46103;-83
2024/03/09 06:18:00;;;;;;;115.40;69.80;;;;;;;2.56;100.00;100018.19;182708;1238;58174;-82
2024/03/09 06:22:02;;;;;;;109.50;66.60;;;;;;;2.62;100.00;100017.36;181984;1236;45987;-83
2024/03/09 06:26:04;;;;;;;108.50;66.90;;;;;;;2.69;100.00;100016.84;182259;1241;46212;-83
2024/03/09 06:30:15;;;;;;;122.70;73.80;;;;;;;2.76;100.00;100017.30;182360;1237;46036;-83
2024/03/09 06:34:17;;;;;;;120.90;68.90;;;;;;;2.84;100.00;100009.52;182348;1239;46119;-83
2024/03/09 06:38:19;;;;;;;116.60;69.20;;;;;;;2.85;100.00;100000.54;181990;1239;59099;-83
2024/03/09 06:42:21;;;;;;;108.10;68.80;;;;;;;2.85;100.00;100002.99;182137;1236;46044;-81
2024/03/09 06:46:23;;;;;;;107.00;70.20;;;;;;;2.86;100.00;100005.21;182531;1237;46054;-83
2024/03/09 06:50:30;;;;;;;116.60;69.40;;;;;;;2.89;100.00;100005.60;182195;1237;45964;-82
2024/03/09 06:54:32;;;;;;;95.40;62.10;;;;;;;3.04;100.00;99999.54;182109;1236;45955;-83
2024/03/09 06:58:33;;;;;;;109.50;72.70;;;;;;;3.31;100.00;99994.34;182266;1239;59705;-83
2024/03/09 07:02:36;;;;;;;106.60;70.70;;;;;;;3.52;100.00;99992.64;182177;1240;46026;-83
2024/03/09 07:06:38;;;;;;;107.90;68.40;;;;;;;3.68;100.00;99996.67;182932;1240;46098;-82
2024/03/09 07:10:39;;;;;;;109.10;68.10;;;;;;;3.70;100.00;99998.11;181885;1239;46096;-82
2024/03/09 07:14:42;;;;;;;115.10;66.40;;;;;;;3.71;100.00;99998.05;182257;1236;45440;-83
2024/03/09 07:18:45;;;;;;;105.10;67.70;;;;;;;3.69;100.00;99989.21;182123;1237;58078;-83
2024/03/09 07:22:49;;;;;;;115.50;66.90;;;;;;;3.73;100.00;99980.63;181924;1236;46069;-80
2024/03/09 07:26:51;;;;;;;119.00;68.40;;;;;;;3.68;100.00;99988.25;181515;1240;46096;-84
2024/03/09 07:30:54;;;;;;;114.10;69.00;;;;;;;3.71;100.00;99977.02;182317;1236;45994;-83
2024/03/09 07:34:56;;;;;;;109.90;66.60;;;;;;;3.73;100.00;99966.36;182336;1236;46090;-83
2024/03/09 07:38:58;;;;;;;115.40;67.10;;;;;;;3.83;100.00;99970.34;182448;1238;59614;-84
2024/03/09 07:43:00;;;;;;;110.20;72.00;;;;;;;3.99;100.00;99962.77;181517;1238;46045;-83
2024/03/09 07:47:01;;;;;;;112.30;70.20;;;;;;;4.20;100.00;99957.33;181923;1238;45434;-83
2024/03/09 07:51:03;;;;;;;108.80;66.50;;;;;;;4.44;100.00;99956.23;182194;1241;46006;-84
2024/03/09 07:55:08;;;;;;;100.40;63.30;;;;;;;4.76;100.00;99947.74;181608;1241;46167;-83
2024/03/09 07:59:11;;;;;;;102.50;66.80;;;;;;;5.10;100.00;99948.95;181855;1236;58608;-83
2024/03/09 08:03:13;;;;;;;96.10;65.20;;;;;;;5.39;100.00;99946.71;182491;1236;45967;-83
2024/03/09 08:07:17;;;;;;;123.20;66.70;;;;;;;5.59;100.00;99945.79;181717;1236;46102;-82
2024/03/09 08:11:22;;;;;;;103.60;65.90;;;;;;;5.76;100.00;99937.96;182095;1236;45973;-83
2024/03/09 08:15:28;;;;;;;104.00;62.70;;;;;;;5.92;100.00;99940.25;182060;1241;46198;-82
2024/03/09 08:19:30;;;;;;;102.40;65.70;;;;;;;6.12;100.00;99939.80;181953;1237;58047;-82
2024/03/09 08:23:33;;;;;;;95.80;61.00;;;;;;;6.33;100.00;99940.84;182017;1236;46133;-83
2024/03/09 08:27:37;;;;;;;89.90;58.10;;;;;;;6.46;100.00;99930.77;181825;1240;46160;-83
2024/03/09 08:31:39;;;;;;;85.20;53.80;;;;;;;6.57;100.00;99931.44;182585;1240;46102;-81
2024/03/09 08:35:41;;;;;;;99.70;62.90;;;;;;;6.60;100.00;99933.71;182790;1236;46099;-81
2024/03/09 08:39:45;;;;;;;99.60;63.40;;;;;;;6.70;100.00;99931.92;182825;1236;57878;-81
2024/03/09 08:43:47;;;;;;;90.40;55.90;;;;;;;6.84;100.00;99915.06;182696;1237;45978;-82
2024/03/09 08:47:52;;;;;;;83.30;56.20;;;;;;;7.11;100.00;99909.45;182628;1240;46098;-81
2024/03/09 08:51:55;;;;;;;84.10;56.90;;;;;;;7.35;99.41;99903.65;181542;1240;46108;-82
2024/03/09 08:55:57;;;;;;;99.70;57.30;;;;;;;7.45;97.46;99898.14;182035;1236;44052;-81
2024/03/09 09:00:05;;;;;;;89.30;55.00;;;;;;;7.55;97.80;99900.60;182452;1236;57808;-82
2024/03/09 09:04:07;;;;;;;89.10;53.50;;;;;;;7.69;96.80;99895.09;182378;1238;46147;-82
2024/03/09 09:08:17;;;;;;;94.70;54.50;;;;;;;7.84;95.40;99883.34;182993;1240;46044;-82
2024/03/09 09:12:19;;;;;;;76.30;53.00;;;;;;;7.92;94.98;99877.09;183852;1236;44419;-82
2024/03/09 09:16:21;;;;;;;72.80;48.60;;;;;;;8.00;94.21;99870.52;182483;1236;44791;-82
2024/03/09 09:20:24;;;;;;;76.40;45.90;;;;;;;8.20;92.63;99862.36;183034;1236;59423;-82
2024/03/09 09:24:26;;;;;;;80.00;49.80;;;;;;;8.44;90.90;99860.51;182160;1236;45978;-82
2024/03/09 09:28:28;;;;;;;73.00;48.10;;;;;;;8.57;90.72;99849.52;182331;1236;45923;-81
2024/03/09 09:32:29;;;;;;;58.00;40.60;;;;;;;8.80;89.90;99846.72;183453;1240;46103;-81
2024/03/09 09:36:31;;;;;;;63.20;38.50;;;;;;;9.01;88.55;99844.14;182855;1236;45936;-81
2024/03/09 09:40:33;;;;;;;64.20;41.70;;;;;;;9.24;88.27;99841.95;182408;1239;60632;-81
2024/03/09 09:44:36;;;;;;;56.10;40.10;;;;;;;9.40;85.94;99839.94;184309;1236;44659;-81
2024/03/09 09:48:38;;;;;;;60.10;39.20;;;;;;;9.57;85.68;99836.86;184512;1236;43972;-82
2024/03/09 09:52:41;;;;;;;58.70;39.40;;;;;;;9.78;85.21;99828.95;183103;1236;46119;-81
2024/03/09 09:56:44;;;;;;;62.70;38.30;;;;;;;9.96;82.22;99833.45;183018;1236;45906;-82
2024/03/09 10:00:45;;;;;;;66.70;40.10;;;;;;;10.12;82.11;99831.84;183550;1237;57941;-81
2024/03/09 10:04:50;;;;;;;51.30;32.10;;;;;;;10.26;80.51;99827.78;182584;1236;46080;-81
2024/03/09 10:08:53;;;;;;;51.20;34.20;;;;;;;10.39;79.80;99820.10;182719;1240;46034;-81
2024/03/09 10:13:05;;;;;;;50.80;35.80;;;;;;;10.41;78.77;99814.60;181796;1240;46153;-81
2024/03/09 10:17:11;;;;;;;50.10;32.20;;;;;;;10.41;79.58;99811.96;183037;1238;46000;-81
2024/03/09 10:21:14;;;;;;;45.50;28.70;;;;;;;10.41;77.46;99806.97;182591;1236;59264;-82
2024/03/09 10:25:27;;;;;;;32.00;23.60;;;;;;;10.32;76.55;99808.71;182192;1239;45994;-81
2024/03/09 10:29:29;;;;;;;42.20;27.00;;;;;;;10.09;76.50;99801.08;183030;1239;46072;-81
2024/03/09 10:33:37;;;;;;;34.20;24.20;;;;;;;9.99;77.78;99804.96;184022;1240;44196;-81
2024/03/09 10:37:40;;;;;;;36.80;24.20;;;;;;;10.02;78.75;99806.86;183343;1239;46122;-82
2024/03/09 10:41:43;;;;;;;37.20;24.60;;;;;;;10.03;76.84;99804.31;185390;1238;59249;-82
2024/03/09 10:45:51;;;;;;;42.80;26.60;;;;;;;10.02;77.24;99797.98;183576;1237;46099;-81
2024/03/09 10:49:59;;;;;;;39.10;26.80;;;;;;;10.17;79.54;99796.88;184073;1240;45955;-80
2024/03/09 10:54:19;;;;;;;31.50;22.10;;;;;;;10.34;80.50;99798.42;184638;1237;43718;-80
2024/03/09 10:58:24;;;;;;;37.50;24.60;;;;;;;10.51;80.08;99787.70;185343;1236;43766;-81
2024/03/09 11:02:27;;;;;;;32.60;22.10;;;;;;;10.55;78.17;99784.71;183685;1239;59303;-82
2024/03/09 11:06:28;;;;;;;27.70;22.10;;;;;;;10.63;78.85;99787.23;183736;1240;46092;-79
2024/03/09 11:10:31;;;;;;;30.40;21.20;;;;;;;10.60;77.51;99791.19;183393;1240;46304;-79
2024/03/09 11:14:33;;;;;;;32.50;21.80;;;;;;;10.57;78.44;99781.89;183984;1240;44530;-78
2024/03/09 11:18:40;;;;;;;35.60;22.20;;;;;;;10.54;76.76;99780.15;183662;1236;46367;-79
2024/03/09 11:22:45;;;;;;;30.90;21.20;;;;;;;10.50;76.97;99770.80;183708;1236;58007;-79
2024/03/09 11:26:53;;;;;;;33.40;24.60;;;;;;;10.47;77.53;99765.26;182075;1240;46099;-81
2024/03/09 11:31:14;;;;;;;34.80;24.30;;;;;;;10.50;79.26;99758.88;182729;1236;188259;-81
2024/03/09 11:35:33;;;;;;;35.10;24.40;;;;;;;10.55;79.15;99755.77;183462;1239;45942;-82
2024/03/09 11:39:36;;;;;;;38.50;26.50;;;;;;;10.51;79.58;99755.79;183399;1238;46071;-81
2024/03/09 11:43:40;;;;;;;47.70;29.00;;;;;;;10.46;78.81;99756.96;183343;1236;57829;-82
2024/03/09 11:47:42;;;;;;;40.30;27.60;;;;;;;10.37;79.31;99753.09;184230;1236;45961;-82
2024/03/09 11:51:44;;;;;;;46.40;26.20;;;;;;;10.35;79.83;99753.31;183695;1236;43920;-82
2024/03/09 11:55:49;;;;;;;41.90;29.30;;;;;;;10.27;80.78;99753.13;184419;1238;44084;-81
2024/03/09 11:59:50;;;;;;;42.20;28.60;;;;;;;10.21;82.54;99752.76;184020;1237;46143;-82
2024/03/09 12:03:53;;;;;;;47.00;32.10;;;;;;;10.19;83.06;99749.95;183405;1237;58129;-82
2024/03/09 12:07:56;;;;;;;42.00;29.40;;;;;;;10.12;83.22;99749.42;182480;1238;45969;-82
2024/03/09 12:11:58;;;;;;;39.10;28.00;;;;;;;10.11;83.89;99738.52;183186;1240;43983;-81
2024/03/09 12:16:00;;;;;;;43.60;28.40;;;;;;;10.11;84.85;99731.31;183076;1236;46048;-81
2024/03/09 12:20:04;;;;;;;35.50;27.40;;;;;;;10.13;84.99;99719.25;183607;1239;46095;-80
2024/03/09 12:24:07;;;;;;;47.20;31.60;;;;;;;10.20;85.31;99717.77;182494;1241;59587;-81
2024/03/09 12:28:09;;;;;;;41.00;26.10;;;;;;;10.26;85.47;99709.45;183012;1237;46006;-81
2024/03/09 12:32:11;;;;;;;41.30;26.90;;;;;;;10.37;84.41;99704.96;183323;1238;44133;-82
2024/03/09 12:36:17;;;;;;;34.00;18.60;;;;;;;10.43;84.05;99710.58;184084;1236;43904;-80
2024/03/09 12:40:19;;;;;;;27.00;19.90;;;;;;;10.35;83.77;99705.23;181620;1236;46109;-80
2024/03/09 12:44:22;;;;;;;33.30;18.60;;;;;;;10.18;82.86;99692.59;182759;1237;57879;-81
2024/03/09 12:48:25;;;;;;;35.10;21.60;;;;;;;10.13;81.78;99690.89;183086;1237;45950;-81
2024/03/09 12:52:28;;;;;;;29.00;18.60;;;;;;;10.23;81.52;99691.27;184418;1239;43729;-81
2024/03/09 12:56:30;;;;;;;28.00;17.80;;;;;;;10.31;81.79;99685.61;183451;1238;46083;-80
2024/03/09 13:00:36;;;;;;;28.00;18.30;;;;;;;10.35;81.09;99680.61;182839;1237;46155;-79
2024/03/09 13:04:37;;;;;;;38.90;18.40;;;;;;;10.31;80.67;99679.59;183839;1238;59449;-80
2024/03/09 13:08:43;;;;;;;32.50;17.10;;;;;;;10.30;82.07;99679.09;183136;1237;46537;-80
2024/03/09 13:12:48;;;;;;;29.50;24.40;;;;;;;10.33;81.83;99671.78;184835;1238;43853;-81
2024/03/09 13:16:50;;;;;;;29.60;20.40;;;;;;;10.43;81.22;99660.94;182939;1239;46149;-79
2024/03/09 13:20:53;;;;;;;38.30;19.70;;;;;;;10.49;81.64;99652.26;183978;1237;46015;-81
2024/03/09 13:24:55;;;;;;;27.20;17.70;;;;;;;10.40;81.99;99643.81;182666;1238;59392;-79
2024/03/09 13:29:00;;;;;;;22.10;15.40;;;;;;;10.56;80.73;99646.34;182036;1240;46048;-79
2024/03/09 13:33:03;;;;;;;25.50;17.00;;;;;;;10.62;80.46;99644.88;182001;1240;46105;-81
2024/03/09 13:37:05;;;;;;;41.20;23.10;;;;;;;10.58;80.69;99639.93;182245;1237;46207;-81
2024/03/09 13:41:09;;;;;;;25.60;13.80;;;;;;;10.56;80.48;99636.43;183796;1236;46006;-80
2024/03/09 13:45:11;;;;;;;36.40;26.50;;;;;;;10.49;80.84;99635.63;181749;1240;58797;-81
2024/03/09 13:49:14;;;;;;;62.10;38.00;;;;;;;10.47;81.19;99637.95;181779;1240;45983;-80
2024/03/09 13:53:17;;;;;;;34.90;19.00;;;;;;;10.44;81.88;99635.22;184109;1237;44006;-81
2024/03/09 13:57:19;;;;;;;25.80;15.90;;;;;;;10.32;82.62;99629.84;183600;1236;46031;-81
2024/03/09 14:01:20;;;;;;;26.10;18.90;;;;;;;10.36;83.86;99631.27;183211;1240;44583;-81
2024/03/09 14:05:26;;;;;;;28.40;19.60;;;;;;;10.44;83.53;99629.83;183001;1238;58007;-80
2024/03/09 14:09:30;;;;;;;25.80;17.50;;;;;;;10.50;82.72;99623.11;183216;1240;46041;-81
2024/03/09 14:13:35;;;;;;;24.70;18.40;;;;;;;10.53;82.79;99620.34;183420;1237;44325;-80
2024/03/09 14:17:36;;;;;;;26.40;19.90;;;;;;;10.59;82.62;99611.63;182454;1238;46080;-81
2024/03/09 14:21:38;;;;;;;23.80;18.10;;;;;;;10.60;82.76;99613.34;182602;1238;45983;-80
2024/03/09 14:25:40;;;;;;;26.80;19.60;;;;;;;10.63;82.23;99613.05;184670;1238;59650;-80
2024/03/09 14:29:42;;;;;;;28.90;20.00;;;;;;;10.63;81.76;99612.66;184082;1237;45832;-80
2024/03/09 14:33:44;;;;;;;28.90;17.60;;;;;;;10.65;82.15;99606.33;183040;1237;46115;-81
2024/03/09 14:37:46;;;;;;;28.20;19.20;;;;;;;10.62;82.26;99601.30;181752;1238;46048;-80
2024/03/09 14:41:48;;;;;;;26.60;21.00;;;;;;;10.61;82.15;99601.33;182764;1236;46113;-80
2024/03/09 14:45:53;;;;;;;25.90;18.10;;;;;;;10.64;83.42;99601.58;182977;1238;57782;-80
2024/03/09 14:49:55;;;;;;;36.30;22.50;;;;;;;10.65;82.86;99592.34;182844;1240;46408;-80
2024/03/09 14:53:58;;;;;;;53.50;39.00;;;;;;;10.63;82.18;99585.54;181855;1237;46003;-80
2024/03/09 14:58:07;;;;;;;81.20;51.00;;;;;;;10.65;82.37;99588.06;182064;1238;46081;-80
2024/03/09 15:02:09;;;;;;;65.50;37.90;;;;;;;10.60;81.13;99588.16;183073;1238;44996;-80
2024/03/09 15:06:13;;;;;;;77.90;48.20;;;;;;;10.61;80.41;99589.67;181802;1237;57536;-80
2024/03/09 15:10:15;;;;;;;68.10;40.20;;;;;;;10.60;79.57;99587.95;182196;1240;46017;-81
2024/03/09 15:14:21;;;;;;;55.90;30.70;;;;;;;10.55;80.10;99587.90;182824;1238;43793;-81
2024/03/09 15:18:23;;;;;;;33.30;19.20;;;;;;;10.50;80.05;99582.66;183154;1238;46186;-80
2024/03/09 15:22:27;;;;;;;17.00;14.10;;;;;;;10.42;80.99;99578.32;183892;1237;44057;-80
2024/03/09 15:26:30;;;;;;;19.30;13.10;;;;;;;10.35;81.96;99577.52;182439;1238;58121;-81
2024/03/09 15:30:32;;;;;;;12.50;10.10;;;;;;;10.24;82.52;99574.36;184002;1238;44127;-80
2024/03/09 15:34:35;;;;;;;18.60;13.20;;;;;;;10.09;82.63;99567.60;182594;1238;46165;-80
2024/03/09 15:38:42;;;;;;;17.10;11.40;;;;;;;10.08;82.85;99562.88;182479;1237;46125;-81
2024/03/09 15:42:48;;;;;;;23.40;14.30;;;;;;;10.03;82.59;99551.66;182009;1237;44161;-81
2024/03/09 15:46:52;;;;;;;20.20;14.10;;;;;;;9.99;82.81;99549.36;182272;1238;57999;-80
2024/03/09 15:50:54;;;;;;;18.80;12.20;;;;;;;9.97;82.82;99546.88;184022;1238;46194;-81
2024/03/09 15:54:57;;;;;;;21.10;14.20;;;;;;;9.98;83.27;99553.02;182842;1238;46601;-80
2024/03/09 15:58:59;;;;;;;23.40;14.80;;;;;;;10.04;82.11;99561.90;182189;1240;45994;-81
2024/03/09 16:03:02;;;;;;;19.10;13.50;;;;;;;10.08;82.42;99560.43;183625;1238;46020;-81
2024/03/09 16:07:05;;;;;;;22.30;14.70;;;;;;;10.10;82.20;99562.73;182660;1238;59904;-81
2024/03/09 16:11:06;;;;;;;21.70;13.70;;;;;;;10.07;82.49;99558.96;182711;1238;45975;-82
2024/03/09 16:15:09;;;;;;;18.50;14.10;;;;;;;10.05;82.74;99550.46;181722;1239;46215;-81
2024/03/09 16:19:11;;;;;;;18.80;13.80;;;;;;;10.05;81.98;99544.27;182397;1236;46018;-81
2024/03/09 16:23:17;;;;;;;21.60;15.70;;;;;;;10.03;82.24;99541.06;183211;1240;44067;-81
2024/03/09 16:27:20;;;;;;;22.10;16.80;;;;;;;9.96;83.06;99540.58;182032;1238;59507;-81
2024/03/09 16:31:22;;;;;;;21.00;17.10;;;;;;;9.87;83.96;99539.33;181437;1238;45961;-81
2024/03/09 16:35:32;;;;;;;27.40;19.20;;;;;;;9.73;85.21;99540.38;182539;1238;46107;-81
2024/03/09 16:39:33;;;;;;;22.50;16.90;;;;;;;9.67;85.73;99548.04;183076;1238;46182;-81
2024/03/09 16:43:35;;;;;;;24.00;17.40;;;;;;;9.56;86.89;99559.59;182112;1237;46018;-80
2024/03/09 16:47:42;;;;;;;24.10;17.60;;;;;;;9.55;86.77;99555.40;183998;1238;59400;-81
2024/03/09 16:51:44;;;;;;;25.00;16.10;;;;;;;9.59;86.33;99550.64;184087;1237;45946;-80
2024/03/09 16:55:46;;;;;;;22.00;15.50;;;;;;;9.61;86.22;99552.75;183151;1241;46006;-81
2024/03/09 16:59:47;;;;;;;24.50;16.00;;;;;;;9.63;86.40;99559.55;183493;1238;45977;-80
2024/03/09 17:03:51;;;;;;;24.10;17.30;;;;;;;9.59;87.12;99563.14;183666;1239;46106;-80
2024/03/09 17:07:54;;;;;;;25.80;19.50;;;;;;;9.56;87.07;99564.37;184448;1237;58907;-80
2024/03/09 17:11:56;;;;;;;33.80;21.10;;;;;;;9.55;87.46;99564.61;183705;1237;46015;-80
2024/03/09 17:15:58;;;;;;;39.70;26.10;;;;;;;9.51;88.41;99565.14;182902;1238;45992;-81
2024/03/09 17:20:08;;;;;;;38.70;22.90;;;;;;;9.51;88.41;99563.61;182962;1237;46128;-81
2024/03/09 17:24:10;;;;;;;62.90;37.90;;;;;;;9.49;88.73;99561.23;182748;1237;44572;-81
2024/03/09 17:28:12;;;;;;;56.80;32.00;;;;;;;9.49;88.52;99556.67;182744;1239;57997;-81
2024/03/09 17:32:17;;;;;;;51.60;29.50;;;;;;;9.45;89.41;99554.19;182926;1240;44081;-81
2024/03/09 17:36:19;;;;;;;29.90;21.00;;;;;;;9.42;89.61;99550.77;183900;1239;46115;-81
2024/03/09 17:40:23;;;;;;;30.20;23.00;;;;;;;9.35;90.40;99550.25;183119;1237;46579;-81
2024/03/09 17:44:28;;;;;;;34.50;24.60;;;;;;;9.37;89.78;99541.48;184464;1238;45957;-81
2024/03/09 17:48:30;;;;;;;34.60;24.40;;;;;;;9.37;88.65;99540.23;183470;1237;58043;-81
2024/03/09 17:52:32;;;;;;;24.50;17.50;;;;;;;9.42;88.30;99543.99;182594;1238;46135;-81
2024/03/09 17:56:33;;;;;;;26.50;18.20;;;;;;;9.42;87.76;99541.00;182218;1237;46023;-80
2024/03/09 18:00:36;;;;;;;24.90;16.70;;;;;;;9.41;88.18;99538.10;182358;1238;46115;-80
2024/03/09 18:04:39;;;;;;;30.00;19.90;;;;;;;9.38;88.08;99535.88;181685;1237;46078;-80
2024/03/09 18:08:43;;;;;;;25.20;17.60;;;;;;;9.37;88.62;99529.60;181303;1238;57667;-81
2024/03/09 18:12:45;;;;;;;24.20;17.70;;;;;;;9.29;89.41;99528.48;182295;1238;45883;-82
2024/03/09 18:16:49;;;;;;;20.30;16.70;;;;;;;9.19;90.67;99527.44;183688;1237;44778;-81
2024/03/09 18:20:51;;;;;;;27.60;17.00;;;;;;;9.07;91.47;99523.48;183225;1237;43975;-81